sensor_id;sensor_type;location;lat;lon;timestamp;P1;durP1;ratioP1;P2;durP2;ratioP2
21905;SDS011;11117;48.644;9.006;2023-04-10T00:00:23;25.00;;;14.73;;
21905;SDS011;11117;48.644;9.006;2023-04-10T00:02:49;22.70;;;14.43;;
21905;SDS011;11117;48.644;9.006;2023-04-10T00:05:14;22.50;;;13.73;;
21905;SDS011;11117;48.644;9.006;2023-04-10T00:07:40;23.53;;;14.50;;
21905;SDS011;11117;48.644;9.006;2023-04-10T00:10:06;23.67;;;14.33;;
21905;SDS011;11117;48.644;9.006;2023-04-10T00:12:32;26.80;;;14.87;;
21905;SDS011;11117;48.644;9.006;2023-04-10T00:14:59;21.97;;;13.50;;
21905;SDS011;11117;48.644;9.006;2023-04-10T00:17:25;25.10;;;14.77;;
21905;SDS011;11117;48.644;9.006;2023-04-10T00:19:50;22.73;;;13.63;;
21905;SDS011;11117;48.644;9.006;2023-04-10T00:22:16;26.53;;;15.00;;
21905;SDS011;11117;48.644;9.006;2023-04-10T00:24:42;25.77;;;14.90;;
21905;SDS011;11117;48.644;9.006;2023-04-10T00:27:07;27.77;;;15.17;;
21905;SDS011;11117;48.644;9.006;2023-04-10T00:29:33;27.63;;;15.00;;
21905;SDS011;11117;48.644;9.006;2023-04-10T00:31:58;25.37;;;14.50;;
21905;SDS011;11117;48.644;9.006;2023-04-10T00:34:24;27.53;;;14.87;;
21905;SDS011;11117;48.644;9.006;2023-04-10T00:36:50;24.23;;;14.63;;
21905;SDS011;11117;48.644;9.006;2023-04-10T00:39:16;25.57;;;14.97;;
21905;SDS011;11117;48.644;9.006;2023-04-10T00:41:41;25.40;;;14.67;;
21905;SDS011;11117;48.644;9.006;2023-04-10T00:44:07;25.07;;;14.27;;
21905;SDS011;11117;48.644;9.006;2023-04-10T00:46:32;24.30;;;13.97;;
21905;SDS011;11117;48.644;9.006;2023-04-10T00:48:58;22.33;;;13.47;;
21905;SDS011;11117;48.644;9.006;2023-04-10T00:51:24;22.20;;;13.40;;
21905;SDS011;11117;48.644;9.006;2023-04-10T00:53:49;26.43;;;14.17;;
21905;SDS011;11117;48.644;9.006;2023-04-10T00:56:16;25.13;;;14.80;;
21905;SDS011;11117;48.644;9.006;2023-04-10T00:58:42;28.57;;;15.80;;
21905;SDS011;11117;48.644;9.006;2023-04-10T01:01:08;34.43;;;17.17;;
21905;SDS011;11117;48.644;9.006;2023-04-10T01:03:34;33.93;;;17.17;;
21905;SDS011;11117;48.644;9.006;2023-04-10T01:08:37;26.47;;;15.07;;
21905;SDS011;11117;48.644;9.006;2023-04-10T01:14:30;23.57;;;14.30;;
21905;SDS011;11117;48.644;9.006;2023-04-10T01:17:27;27.50;;;14.97;;
21905;SDS011;11117;48.644;9.006;2023-04-10T01:20:00;23.73;;;13.73;;
21905;SDS011;11117;48.644;9.006;2023-04-10T01:22:37;24.63;;;14.47;;
21905;SDS011;11117;48.644;9.006;2023-04-10T01:30:40;24.93;;;14.47;;
21905;SDS011;11117;48.644;9.006;2023-04-10T01:33:07;25.23;;;14.23;;
21905;SDS011;11117;48.644;9.006;2023-04-10T01:35:36;24.27;;;14.00;;
21905;SDS011;11117;48.644;9.006;2023-04-10T01:38:04;27.97;;;13.93;;
21905;SDS011;11117;48.644;9.006;2023-04-10T01:40:31;24.80;;;13.97;;
21905;SDS011;11117;48.644;9.006;2023-04-10T01:42:58;25.07;;;14.40;;
21905;SDS011;11117;48.644;9.006;2023-04-10T01:45:26;23.57;;;13.50;;
21905;SDS011;11117;48.644;9.006;2023-04-10T01:47:52;21.93;;;13.27;;
21905;SDS011;11117;48.644;9.006;2023-04-10T01:50:19;20.70;;;12.67;;
21905;SDS011;11117;48.644;9.006;2023-04-10T01:52:46;22.30;;;12.90;;
21905;SDS011;11117;48.644;9.006;2023-04-10T01:55:12;21.90;;;12.57;;
21905;SDS011;11117;48.644;9.006;2023-04-10T01:57:38;21.47;;;12.47;;
21905;SDS011;11117;48.644;9.006;2023-04-10T02:00:04;23.67;;;13.33;;
21905;SDS011;11117;48.644;9.006;2023-04-10T02:02:30;22.50;;;13.27;;
21905;SDS011;11117;48.644;9.006;2023-04-10T02:04:56;21.60;;;13.07;;
21905;SDS011;11117;48.644;9.006;2023-04-10T02:07:34;19.33;;;11.70;;
21905;SDS011;11117;48.644;9.006;2023-04-10T02:10:10;21.13;;;12.57;;
21905;SDS011;11117;48.644;9.006;2023-04-10T02:12:40;22.80;;;12.53;;
21905;SDS011;11117;48.644;9.006;2023-04-10T02:15:11;20.27;;;12.40;;
21905;SDS011;11117;48.644;9.006;2023-04-10T02:17:37;21.50;;;12.60;;
21905;SDS011;11117;48.644;9.006;2023-04-10T02:20:04;20.10;;;12.13;;
21905;SDS011;11117;48.644;9.006;2023-04-10T02:22:30;22.27;;;13.33;;
21905;SDS011;11117;48.644;9.006;2023-04-10T02:24:56;23.53;;;13.13;;
21905;SDS011;11117;48.644;9.006;2023-04-10T02:27:27;25.23;;;12.83;;
21905;SDS011;11117;48.644;9.006;2023-04-10T02:29:56;23.60;;;13.47;;
21905;SDS011;11117;48.644;9.006;2023-04-10T02:32:22;24.70;;;13.63;;
21905;SDS011;11117;48.644;9.006;2023-04-10T02:34:48;22.93;;;13.00;;
21905;SDS011;11117;48.644;9.006;2023-04-10T02:37:14;23.20;;;13.73;;
21905;SDS011;11117;48.644;9.006;2023-04-10T02:39:39;24.40;;;13.93;;
21905;SDS011;11117;48.644;9.006;2023-04-10T02:42:05;24.27;;;13.40;;
21905;SDS011;11117;48.644;9.006;2023-04-10T02:44:30;21.17;;;12.30;;
21905;SDS011;11117;48.644;9.006;2023-04-10T02:46:56;22.90;;;12.80;;
21905;SDS011;11117;48.644;9.006;2023-04-10T02:49:22;21.83;;;12.53;;
21905;SDS011;11117;48.644;9.006;2023-04-10T02:51:48;22.20;;;12.13;;
21905;SDS011;11117;48.644;9.006;2023-04-10T02:54:14;24.07;;;13.37;;
21905;SDS011;11117;48.644;9.006;2023-04-10T02:56:40;23.03;;;13.03;;
21905;SDS011;11117;48.644;9.006;2023-04-10T02:59:05;25.67;;;13.47;;
21905;SDS011;11117;48.644;9.006;2023-04-10T03:01:31;29.83;;;17.03;;
21905;SDS011;11117;48.644;9.006;2023-04-10T03:03:57;28.63;;;15.80;;
21905;SDS011;11117;48.644;9.006;2023-04-10T03:06:22;26.13;;;15.03;;
21905;SDS011;11117;48.644;9.006;2023-04-10T03:08:48;26.47;;;15.60;;
21905;SDS011;11117;48.644;9.006;2023-04-10T03:11:13;28.17;;;15.50;;
21905;SDS011;11117;48.644;9.006;2023-04-10T03:13:39;27.47;;;15.27;;
21905;SDS011;11117;48.644;9.006;2023-04-10T03:16:07;27.73;;;14.90;;
21905;SDS011;11117;48.644;9.006;2023-04-10T03:18:33;24.27;;;13.80;;
21905;SDS011;11117;48.644;9.006;2023-04-10T03:20:59;24.37;;;13.37;;
21905;SDS011;11117;48.644;9.006;2023-04-10T03:23:24;23.33;;;13.73;;
21905;SDS011;11117;48.644;9.006;2023-04-10T03:25:50;25.33;;;14.50;;
21905;SDS011;11117;48.644;9.006;2023-04-10T03:28:16;23.83;;;13.40;;
21905;SDS011;11117;48.644;9.006;2023-04-10T03:30:41;24.37;;;13.30;;
21905;SDS011;11117;48.644;9.006;2023-04-10T03:33:07;21.80;;;12.43;;
21905;SDS011;11117;48.644;9.006;2023-04-10T03:35:33;24.00;;;13.13;;
21905;SDS011;11117;48.644;9.006;2023-04-10T03:38:00;21.93;;;12.50;;
21905;SDS011;11117;48.644;9.006;2023-04-10T03:40:25;20.63;;;12.47;;
21905;SDS011;11117;48.644;9.006;2023-04-10T03:42:51;22.67;;;12.77;;
21905;SDS011;11117;48.644;9.006;2023-04-10T03:45:16;21.47;;;12.50;;
21905;SDS011;11117;48.644;9.006;2023-04-10T03:47:42;22.33;;;12.00;;
21905;SDS011;11117;48.644;9.006;2023-04-10T03:50:07;20.63;;;11.83;;
21905;SDS011;11117;48.644;9.006;2023-04-10T03:52:33;19.73;;;12.07;;
21905;SDS011;11117;48.644;9.006;2023-04-10T03:54:59;20.57;;;12.27;;
21905;SDS011;11117;48.644;9.006;2023-04-10T03:57:24;22.27;;;12.70;;
21905;SDS011;11117;48.644;9.006;2023-04-10T03:59:50;25.60;;;12.93;;
21905;SDS011;11117;48.644;9.006;2023-04-10T04:02:15;29.40;;;13.03;;
21905;SDS011;11117;48.644;9.006;2023-04-10T04:04:41;22.37;;;13.00;;
21905;SDS011;11117;48.644;9.006;2023-04-10T04:07:07;22.90;;;12.87;;
21905;SDS011;11117;48.644;9.006;2023-04-10T04:09:32;21.77;;;12.67;;
21905;SDS011;11117;48.644;9.006;2023-04-10T04:11:58;29.23;;;18.63;;
21905;SDS011;11117;48.644;9.006;2023-04-10T04:14:24;22.03;;;13.50;;
21905;SDS011;11117;48.644;9.006;2023-04-10T04:16:50;23.87;;;13.90;;
21905;SDS011;11117;48.644;9.006;2023-04-10T04:19:15;22.03;;;12.77;;
21905;SDS011;11117;48.644;9.006;2023-04-10T04:21:41;25.80;;;14.47;;
21905;SDS011;11117;48.644;9.006;2023-04-10T04:24:07;27.70;;;13.33;;
21905;SDS011;11117;48.644;9.006;2023-04-10T04:26:32;23.27;;;13.87;;
21905;SDS011;11117;48.644;9.006;2023-04-10T04:28:58;25.83;;;13.87;;
21905;SDS011;11117;48.644;9.006;2023-04-10T04:31:23;26.47;;;15.10;;
21905;SDS011;11117;48.644;9.006;2023-04-10T04:33:49;31.40;;;20.47;;
21905;SDS011;11117;48.644;9.006;2023-04-10T04:36:15;34.57;;;22.37;;
21905;SDS011;11117;48.644;9.006;2023-04-10T04:38:40;33.67;;;22.30;;
21905;SDS011;11117;48.644;9.006;2023-04-10T04:41:06;37.33;;;26.40;;
21905;SDS011;11117;48.644;9.006;2023-04-10T04:43:32;29.20;;;20.33;;
21905;SDS011;11117;48.644;9.006;2023-04-10T04:45:58;26.23;;;15.83;;
21905;SDS011;11117;48.644;9.006;2023-04-10T04:48:23;24.67;;;14.83;;
21905;SDS011;11117;48.644;9.006;2023-04-10T04:50:49;22.70;;;14.27;;
21905;SDS011;11117;48.644;9.006;2023-04-10T04:53:14;23.47;;;14.03;;
21905;SDS011;11117;48.644;9.006;2023-04-10T04:55:40;24.30;;;15.23;;
21905;SDS011;11117;48.644;9.006;2023-04-10T04:58:05;23.57;;;14.40;;
21905;SDS011;11117;48.644;9.006;2023-04-10T05:00:31;26.80;;;15.77;;
21905;SDS011;11117;48.644;9.006;2023-04-10T05:02:57;28.40;;;17.33;;
21905;SDS011;11117;48.644;9.006;2023-04-10T05:05:22;29.47;;;17.47;;
21905;SDS011;11117;48.644;9.006;2023-04-10T05:07:48;24.43;;;15.83;;
21905;SDS011;11117;48.644;9.006;2023-04-10T05:10:13;25.30;;;15.50;;
21905;SDS011;11117;48.644;9.006;2023-04-10T05:12:39;23.90;;;15.33;;
21905;SDS011;11117;48.644;9.006;2023-04-10T05:15:04;23.23;;;13.80;;
21905;SDS011;11117;48.644;9.006;2023-04-10T05:17:30;23.73;;;14.30;;
21905;SDS011;11117;48.644;9.006;2023-04-10T05:19:56;23.50;;;14.67;;
21905;SDS011;11117;48.644;9.006;2023-04-10T05:22:22;22.63;;;13.57;;
21905;SDS011;11117;48.644;9.006;2023-04-10T05:24:47;21.70;;;12.50;;
21905;SDS011;11117;48.644;9.006;2023-04-10T05:27:13;19.40;;;11.60;;
21905;SDS011;11117;48.644;9.006;2023-04-10T05:29:38;18.60;;;10.90;;
21905;SDS011;11117;48.644;9.006;2023-04-10T05:32:04;17.47;;;10.10;;
21905;SDS011;11117;48.644;9.006;2023-04-10T05:34:29;20.63;;;11.27;;
21905;SDS011;11117;48.644;9.006;2023-04-10T05:36:55;20.90;;;11.23;;
21905;SDS011;11117;48.644;9.006;2023-04-10T05:39:20;20.43;;;11.63;;
21905;SDS011;11117;48.644;9.006;2023-04-10T05:41:46;22.07;;;12.07;;
21905;SDS011;11117;48.644;9.006;2023-04-10T05:44:12;19.70;;;11.30;;
21905;SDS011;11117;48.644;9.006;2023-04-10T05:46:37;19.50;;;11.60;;
21905;SDS011;11117;48.644;9.006;2023-04-10T05:49:03;21.40;;;12.37;;
21905;SDS011;11117;48.644;9.006;2023-04-10T05:51:28;24.97;;;12.33;;
21905;SDS011;11117;48.644;9.006;2023-04-10T05:53:54;22.17;;;12.43;;
21905;SDS011;11117;48.644;9.006;2023-04-10T05:56:20;21.20;;;12.70;;
21905;SDS011;11117;48.644;9.006;2023-04-10T05:58:46;21.00;;;11.33;;
21905;SDS011;11117;48.644;9.006;2023-04-10T06:01:11;18.00;;;10.50;;
21905;SDS011;11117;48.644;9.006;2023-04-10T06:03:37;17.27;;;10.07;;
21905;SDS011;11117;48.644;9.006;2023-04-10T06:06:03;17.17;;;10.07;;
21905;SDS011;11117;48.644;9.006;2023-04-10T06:08:29;17.73;;;9.50;;
21905;SDS011;11117;48.644;9.006;2023-04-10T06:11:04;18.07;;;10.10;;
21905;SDS011;11117;48.644;9.006;2023-04-10T06:13:30;17.50;;;10.37;;
21905;SDS011;11117;48.644;9.006;2023-04-10T06:15:55;16.57;;;9.67;;
21905;SDS011;11117;48.644;9.006;2023-04-10T06:18:21;16.93;;;10.30;;
21905;SDS011;11117;48.644;9.006;2023-04-10T06:20:46;16.40;;;10.07;;
21905;SDS011;11117;48.644;9.006;2023-04-10T06:23:12;16.70;;;9.87;;
21905;SDS011;11117;48.644;9.006;2023-04-10T06:25:37;16.20;;;9.97;;
21905;SDS011;11117;48.644;9.006;2023-04-10T06:28:03;15.07;;;9.50;;
21905;SDS011;11117;48.644;9.006;2023-04-10T06:30:29;16.40;;;9.90;;
21905;SDS011;11117;48.644;9.006;2023-04-10T06:32:54;17.43;;;10.37;;
21905;SDS011;11117;48.644;9.006;2023-04-10T06:35:20;15.20;;;9.60;;
21905;SDS011;11117;48.644;9.006;2023-04-10T06:37:46;15.70;;;10.27;;
21905;SDS011;11117;48.644;9.006;2023-04-10T06:40:22;15.97;;;9.70;;
21905;SDS011;11117;48.644;9.006;2023-04-10T06:42:54;19.30;;;11.00;;
21905;SDS011;11117;48.644;9.006;2023-04-10T06:45:20;16.93;;;9.83;;
21905;SDS011;11117;48.644;9.006;2023-04-10T06:47:46;22.07;;;9.73;;
21905;SDS011;11117;48.644;9.006;2023-04-10T06:50:11;14.27;;;9.37;;
21905;SDS011;11117;48.644;9.006;2023-04-10T06:52:38;15.73;;;10.30;;
21905;SDS011;11117;48.644;9.006;2023-04-10T06:55:08;15.73;;;9.90;;
21905;SDS011;11117;48.644;9.006;2023-04-10T06:57:33;16.00;;;10.60;;
21905;SDS011;11117;48.644;9.006;2023-04-10T06:59:59;16.10;;;10.43;;
21905;SDS011;11117;48.644;9.006;2023-04-10T07:02:24;17.00;;;10.97;;
21905;SDS011;11117;48.644;9.006;2023-04-10T07:04:53;14.87;;;9.30;;
21905;SDS011;11117;48.644;9.006;2023-04-10T07:07:22;15.60;;;9.87;;
21905;SDS011;11117;48.644;9.006;2023-04-10T07:09:48;13.60;;;8.70;;
21905;SDS011;11117;48.644;9.006;2023-04-10T07:12:13;13.27;;;8.33;;
21905;SDS011;11117;48.644;9.006;2023-04-10T07:14:39;12.60;;;8.23;;
21905;SDS011;11117;48.644;9.006;2023-04-10T07:17:04;12.10;;;8.43;;
21905;SDS011;11117;48.644;9.006;2023-04-10T07:19:33;12.20;;;8.13;;
21905;SDS011;11117;48.644;9.006;2023-04-10T07:21:59;12.83;;;8.57;;
21905;SDS011;11117;48.644;9.006;2023-04-10T07:24:26;12.77;;;8.50;;
21905;SDS011;11117;48.644;9.006;2023-04-10T07:26:55;13.40;;;8.87;;
21905;SDS011;11117;48.644;9.006;2023-04-10T07:29:20;13.63;;;9.17;;
21905;SDS011;11117;48.644;9.006;2023-04-10T07:31:46;14.00;;;8.63;;
21905;SDS011;11117;48.644;9.006;2023-04-10T07:34:11;12.73;;;8.47;;
21905;SDS011;11117;48.644;9.006;2023-04-10T07:36:37;14.03;;;8.97;;
21905;SDS011;11117;48.644;9.006;2023-04-10T07:39:02;15.13;;;8.37;;
21905;SDS011;11117;48.644;9.006;2023-04-10T07:41:28;11.57;;;8.53;;
21905;SDS011;11117;48.644;9.006;2023-04-10T07:43:54;10.83;;;7.57;;
21905;SDS011;11117;48.644;9.006;2023-04-10T07:46:19;11.13;;;7.37;;
21905;SDS011;11117;48.644;9.006;2023-04-10T07:48:45;11.40;;;8.10;;
21905;SDS011;11117;48.644;9.006;2023-04-10T07:51:10;12.43;;;7.47;;
21905;SDS011;11117;48.644;9.006;2023-04-10T07:53:36;10.50;;;7.50;;
21905;SDS011;11117;48.644;9.006;2023-04-10T07:56:02;9.70;;;7.00;;
21905;SDS011;11117;48.644;9.006;2023-04-10T07:58:27;10.53;;;7.57;;
21905;SDS011;11117;48.644;9.006;2023-04-10T08:00:53;10.33;;;7.30;;
21905;SDS011;11117;48.644;9.006;2023-04-10T08:03:18;9.73;;;6.90;;
21905;SDS011;11117;48.644;9.006;2023-04-10T08:05:44;10.20;;;7.20;;
21905;SDS011;11117;48.644;9.006;2023-04-10T08:08:10;9.00;;;6.63;;
21905;SDS011;11117;48.644;9.006;2023-04-10T08:10:35;9.10;;;6.60;;
21905;SDS011;11117;48.644;9.006;2023-04-10T08:13:01;9.13;;;6.83;;
21905;SDS011;11117;48.644;9.006;2023-04-10T08:15:27;8.73;;;6.20;;
21905;SDS011;11117;48.644;9.006;2023-04-10T08:17:52;7.77;;;5.67;;
21905;SDS011;11117;48.644;9.006;2023-04-10T08:20:18;8.33;;;6.13;;
21905;SDS011;11117;48.644;9.006;2023-04-10T08:22:44;10.00;;;5.90;;
21905;SDS011;11117;48.644;9.006;2023-04-10T08:25:09;8.80;;;5.77;;
21905;SDS011;11117;48.644;9.006;2023-04-10T08:27:35;7.03;;;5.40;;
21905;SDS011;11117;48.644;9.006;2023-04-10T08:30:00;7.57;;;5.30;;
21905;SDS011;11117;48.644;9.006;2023-04-10T08:32:26;5.87;;;4.63;;
21905;SDS011;11117;48.644;9.006;2023-04-10T08:34:52;6.37;;;4.47;;
21905;SDS011;11117;48.644;9.006;2023-04-10T08:37:17;7.37;;;5.53;;
21905;SDS011;11117;48.644;9.006;2023-04-10T08:39:43;7.27;;;5.40;;
21905;SDS011;11117;48.644;9.006;2023-04-10T08:42:09;6.33;;;5.07;;
21905;SDS011;11117;48.644;9.006;2023-04-10T08:44:34;6.77;;;4.67;;
21905;SDS011;11117;48.644;9.006;2023-04-10T08:47:00;5.53;;;4.47;;
21905;SDS011;11117;48.644;9.006;2023-04-10T08:49:30;7.33;;;4.37;;
21905;SDS011;11117;48.644;9.006;2023-04-10T08:52:07;5.33;;;4.17;;
21905;SDS011;11117;48.644;9.006;2023-04-10T08:54:37;5.10;;;4.03;;
21905;SDS011;11117;48.644;9.006;2023-04-10T08:57:03;4.73;;;3.70;;
21905;SDS011;11117;48.644;9.006;2023-04-10T08:59:31;4.73;;;3.90;;
21905;SDS011;11117;48.644;9.006;2023-04-10T09:01:57;5.83;;;4.13;;
21905;SDS011;11117;48.644;9.006;2023-04-10T09:04:25;4.60;;;3.67;;
21905;SDS011;11117;48.644;9.006;2023-04-10T09:06:51;4.90;;;4.00;;
21905;SDS011;11117;48.644;9.006;2023-04-10T09:09:17;5.50;;;3.97;;
21905;SDS011;11117;48.644;9.006;2023-04-10T09:14:21;4.43;;;3.53;;
21905;SDS011;11117;48.644;9.006;2023-04-10T09:16:49;5.17;;;3.60;;
21905;SDS011;11117;48.644;9.006;2023-04-10T09:19:31;4.17;;;3.30;;
21905;SDS011;11117;48.644;9.006;2023-04-10T09:21:57;5.03;;;3.30;;
21905;SDS011;11117;48.644;9.006;2023-04-10T09:24:24;4.10;;;3.10;;
21905;SDS011;11117;48.644;9.006;2023-04-10T09:26:50;4.23;;;3.30;;
21905;SDS011;11117;48.644;9.006;2023-04-10T09:29:16;4.30;;;3.67;;
21905;SDS011;11117;48.644;9.006;2023-04-10T09:31:42;4.03;;;3.23;;
21905;SDS011;11117;48.644;9.006;2023-04-10T09:34:09;4.20;;;3.27;;
21905;SDS011;11117;48.644;9.006;2023-04-10T09:36:42;4.67;;;3.00;;
21905;SDS011;11117;48.644;9.006;2023-04-10T09:39:09;3.23;;;2.83;;
21905;SDS011;11117;48.644;9.006;2023-04-10T09:41:52;5.00;;;3.00;;
21905;SDS011;11117;48.644;9.006;2023-04-10T09:44:28;3.40;;;2.95;;
21905;SDS011;11117;48.644;9.006;2023-04-10T09:46:55;3.10;;;2.50;;
21905;SDS011;11117;48.644;9.006;2023-04-10T09:49:45;3.10;;;2.55;;
21905;SDS011;11117;48.644;9.006;2023-04-10T09:54:50;3.90;;;2.87;;
21905;SDS011;11117;48.644;9.006;2023-04-10T09:57:17;4.57;;;3.10;;
21905;SDS011;11117;48.644;9.006;2023-04-10T09:59:47;3.35;;;2.55;;
21905;SDS011;11117;48.644;9.006;2023-04-10T10:02:18;3.83;;;2.63;;
21905;SDS011;11117;48.644;9.006;2023-04-10T10:04:45;4.22;;;2.60;;
21905;SDS011;11117;48.644;9.006;2023-04-10T10:07:12;3.70;;;2.60;;
21905;SDS011;11117;48.644;9.006;2023-04-10T10:09:46;3.92;;;2.83;;
21905;SDS011;11117;48.644;9.006;2023-04-10T10:12:33;4.40;;;2.67;;
21905;SDS011;11117;48.644;9.006;2023-04-10T10:20:33;2.67;;;2.22;;
21905;SDS011;11117;48.644;9.006;2023-04-10T10:23:05;2.20;;;2.00;;
21905;SDS011;11117;48.644;9.006;2023-04-10T10:25:31;2.63;;;2.20;;
21905;SDS011;11117;48.644;9.006;2023-04-10T10:27:59;4.35;;;2.30;;
21905;SDS011;11117;48.644;9.006;2023-04-10T10:30:28;2.45;;;2.20;;
21905;SDS011;11117;48.644;9.006;2023-04-10T10:32:58;2.35;;;2.10;;
21905;SDS011;11117;48.644;9.006;2023-04-10T10:35:26;2.22;;;2.03;;
21905;SDS011;11117;48.644;9.006;2023-04-10T10:37:54;2.95;;;2.30;;
21905;SDS011;11117;48.644;9.006;2023-04-10T10:40:30;2.10;;;1.90;;
21905;SDS011;11117;48.644;9.006;2023-04-10T10:43:20;5.80;;;2.20;;
21905;SDS011;11117;48.644;9.006;2023-04-10T10:49:13;2.13;;;1.60;;
21905;SDS011;11117;48.644;9.006;2023-04-10T10:51:46;1.70;;;1.60;;
21905;SDS011;11117;48.644;9.006;2023-04-10T10:54:26;1.55;;;1.42;;
21905;SDS011;11117;48.644;9.006;2023-04-10T10:57:00;1.70;;;1.60;;
21905;SDS011;11117;48.644;9.006;2023-04-10T11:02:16;2.03;;;1.80;;
21905;SDS011;11117;48.644;9.006;2023-04-10T11:04:45;1.70;;;1.17;;
21905;SDS011;11117;48.644;9.006;2023-04-10T11:07:12;1.73;;;1.58;;
21905;SDS011;11117;48.644;9.006;2023-04-10T11:12:15;1.70;;;1.60;;
21905;SDS011;11117;48.644;9.006;2023-04-10T11:14:44;1.55;;;1.30;;
21905;SDS011;11117;48.644;9.006;2023-04-10T11:20:12;1.50;;;1.40;;
21905;SDS011;11117;48.644;9.006;2023-04-10T11:25:45;1.30;;;1.20;;
21905;SDS011;11117;48.644;9.006;2023-04-10T11:31:13;1.60;;;1.50;;
21905;SDS011;11117;48.644;9.006;2023-04-10T11:33:46;1.35;;;1.25;;
21905;SDS011;11117;48.644;9.006;2023-04-10T11:36:13;1.42;;;1.05;;
21905;SDS011;11117;48.644;9.006;2023-04-10T11:38:40;1.20;;;1.10;;
21905;SDS011;11117;48.644;9.006;2023-04-10T11:41:19;1.02;;;0.93;;
21905;SDS011;11117;48.644;9.006;2023-04-10T11:43:53;1.42;;;1.33;;
21905;SDS011;11117;48.644;9.006;2023-04-10T11:46:18;3.40;;;0.60;;
21905;SDS011;11117;48.644;9.006;2023-04-10T11:48:44;2.28;;;1.25;;
21905;SDS011;11117;48.644;9.006;2023-04-10T11:51:11;0.75;;;0.75;;
21905;SDS011;11117;48.644;9.006;2023-04-10T11:53:38;1.20;;;1.10;;
21905;SDS011;11117;48.644;9.006;2023-04-10T11:56:05;5.07;;;1.00;;
21905;SDS011;11117;48.644;9.006;2023-04-10T11:58:38;0.80;;;0.80;;
21905;SDS011;11117;48.644;9.006;2023-04-10T12:01:04;0.93;;;0.93;;
21905;SDS011;11117;48.644;9.006;2023-04-10T12:03:39;1.20;;;1.10;;
21905;SDS011;11117;48.644;9.006;2023-04-10T12:06:07;1.20;;;1.10;;
21905;SDS011;11117;48.644;9.006;2023-04-10T12:08:37;0.90;;;0.90;;
21905;SDS011;11117;48.644;9.006;2023-04-10T12:11:03;1.50;;;1.40;;
21905;SDS011;11117;48.644;9.006;2023-04-10T12:13:29;1.13;;;1.02;;
21905;SDS011;11117;48.644;9.006;2023-04-10T12:15:59;1.63;;;1.10;;
21905;SDS011;11117;48.644;9.006;2023-04-10T12:18:27;0.80;;;0.80;;
21905;SDS011;11117;48.644;9.006;2023-04-10T12:20:53;0.88;;;0.75;;
21905;SDS011;11117;48.644;9.006;2023-04-10T12:23:19;0.90;;;0.90;;
21905;SDS011;11117;48.644;9.006;2023-04-10T12:25:45;0.95;;;0.85;;
21905;SDS011;11117;48.644;9.006;2023-04-10T12:28:15;0.95;;;0.80;;
21905;SDS011;11117;48.644;9.006;2023-04-10T12:30:48;0.98;;;0.65;;
21905;SDS011;11117;48.644;9.006;2023-04-10T12:33:22;0.70;;;0.70;;
21905;SDS011;11117;48.644;9.006;2023-04-10T12:35:48;1.75;;;0.77;;
21905;SDS011;11117;48.644;9.006;2023-04-10T12:38:14;0.70;;;0.70;;
21905;SDS011;11117;48.644;9.006;2023-04-10T12:43:31;0.73;;;0.73;;
21905;SDS011;11117;48.644;9.006;2023-04-10T12:45:56;0.77;;;0.70;;
21905;SDS011;11117;48.644;9.006;2023-04-10T12:48:22;1.25;;;1.02;;
21905;SDS011;11117;48.644;9.006;2023-04-10T12:50:48;0.80;;;0.80;;
21905;SDS011;11117;48.644;9.006;2023-04-10T12:53:13;1.02;;;0.93;;
21905;SDS011;11117;48.644;9.006;2023-04-10T12:55:39;1.00;;;1.00;;
21905;SDS011;11117;48.644;9.006;2023-04-10T12:58:14;0.90;;;0.90;;
21905;SDS011;11117;48.644;9.006;2023-04-10T13:00:41;0.77;;;0.77;;
21905;SDS011;11117;48.644;9.006;2023-04-10T13:03:06;0.70;;;0.70;;
21905;SDS011;11117;48.644;9.006;2023-04-10T13:05:32;0.80;;;0.80;;
21905;SDS011;11117;48.644;9.006;2023-04-10T13:07:58;0.70;;;0.70;;
21905;SDS011;11117;48.644;9.006;2023-04-10T13:10:23;1.08;;;0.90;;
21905;SDS011;11117;48.644;9.006;2023-04-10T13:12:49;1.20;;;1.00;;
21905;SDS011;11117;48.644;9.006;2023-04-10T13:15:14;0.60;;;0.60;;
21905;SDS011;11117;48.644;9.006;2023-04-10T13:17:40;0.70;;;0.70;;
21905;SDS011;11117;48.644;9.006;2023-04-10T13:20:05;1.00;;;0.90;;
21905;SDS011;11117;48.644;9.006;2023-04-10T13:22:31;1.20;;;0.95;;
21905;SDS011;11117;48.644;9.006;2023-04-10T13:24:57;0.70;;;0.70;;
21905;SDS011;11117;48.644;9.006;2023-04-10T13:27:22;0.90;;;0.90;;
21905;SDS011;11117;48.644;9.006;2023-04-10T13:29:48;1.05;;;0.70;;
21905;SDS011;11117;48.644;9.006;2023-04-10T13:32:13;0.60;;;0.60;;
21905;SDS011;11117;48.644;9.006;2023-04-10T13:34:39;0.70;;;0.70;;
21905;SDS011;11117;48.644;9.006;2023-04-10T13:37:04;0.50;;;0.50;;
21905;SDS011;11117;48.644;9.006;2023-04-10T13:39:30;1.95;;;0.90;;
21905;SDS011;11117;48.644;9.006;2023-04-10T13:41:56;0.90;;;0.70;;
21905;SDS011;11117;48.644;9.006;2023-04-10T13:44:22;1.17;;;0.60;;
21905;SDS011;11117;48.644;9.006;2023-04-10T13:46:48;0.90;;;0.90;;
21905;SDS011;11117;48.644;9.006;2023-04-10T13:49:14;0.60;;;0.60;;
21905;SDS011;11117;48.644;9.006;2023-04-10T13:51:39;0.77;;;0.70;;
21905;SDS011;11117;48.644;9.006;2023-04-10T13:54:05;1.23;;;0.77;;
21905;SDS011;11117;48.644;9.006;2023-04-10T13:56:30;0.88;;;0.88;;
21905;SDS011;11117;48.644;9.006;2023-04-10T13:58:56;0.95;;;0.70;;
21905;SDS011;11117;48.644;9.006;2023-04-10T14:01:21;0.70;;;0.70;;
21905;SDS011;11117;48.644;9.006;2023-04-10T14:03:47;4.38;;;0.73;;
21905;SDS011;11117;48.644;9.006;2023-04-10T14:06:12;0.65;;;0.60;;
21905;SDS011;11117;48.644;9.006;2023-04-10T14:08:38;0.75;;;0.75;;
21905;SDS011;11117;48.644;9.006;2023-04-10T14:11:03;0.70;;;0.70;;
21905;SDS011;11117;48.644;9.006;2023-04-10T14:13:29;0.98;;;0.70;;
21905;SDS011;11117;48.644;9.006;2023-04-10T14:15:54;0.70;;;0.70;;
21905;SDS011;11117;48.644;9.006;2023-04-10T14:18:20;0.70;;;0.70;;
21905;SDS011;11117;48.644;9.006;2023-04-10T14:20:46;0.70;;;0.70;;
21905;SDS011;11117;48.644;9.006;2023-04-10T14:23:11;0.70;;;0.70;;
21905;SDS011;11117;48.644;9.006;2023-04-10T14:25:37;0.80;;;0.80;;
21905;SDS011;11117;48.644;9.006;2023-04-10T14:28:03;1.02;;;1.00;;
21905;SDS011;11117;48.644;9.006;2023-04-10T14:30:28;0.73;;;0.73;;
21905;SDS011;11117;48.644;9.006;2023-04-10T14:32:54;1.05;;;0.80;;
21905;SDS011;11117;48.644;9.006;2023-04-10T14:35:19;0.80;;;0.80;;
21905;SDS011;11117;48.644;9.006;2023-04-10T14:37:45;0.68;;;0.68;;
21905;SDS011;11117;48.644;9.006;2023-04-10T14:40:10;1.00;;;0.90;;
21905;SDS011;11117;48.644;9.006;2023-04-10T14:42:36;1.65;;;1.20;;
21905;SDS011;11117;48.644;9.006;2023-04-10T14:45:01;1.23;;;1.13;;
21905;SDS011;11117;48.644;9.006;2023-04-10T14:47:27;0.98;;;0.90;;
21905;SDS011;11117;48.644;9.006;2023-04-10T14:49:53;3.17;;;0.80;;
21905;SDS011;11117;48.644;9.006;2023-04-10T14:52:18;0.75;;;0.75;;
21905;SDS011;11117;48.644;9.006;2023-04-10T14:54:44;1.10;;;1.00;;
21905;SDS011;11117;48.644;9.006;2023-04-10T14:57:09;1.10;;;1.00;;
21905;SDS011;11117;48.644;9.006;2023-04-10T14:59:35;1.23;;;1.13;;
21905;SDS011;11117;48.644;9.006;2023-04-10T15:02:00;1.35;;;1.25;;
21905;SDS011;11117;48.644;9.006;2023-04-10T15:04:27;1.13;;;1.05;;
21905;SDS011;11117;48.644;9.006;2023-04-10T15:06:53;1.38;;;1.00;;
21905;SDS011;11117;48.644;9.006;2023-04-10T15:09:18;1.60;;;1.20;;
21905;SDS011;11117;48.644;9.006;2023-04-10T15:11:44;1.00;;;0.90;;
21905;SDS011;11117;48.644;9.006;2023-04-10T15:14:09;1.10;;;1.00;;
21905;SDS011;11117;48.644;9.006;2023-04-10T15:16:35;1.10;;;1.00;;